sensor_id;sensor_type;location;lat;lon;timestamp;P1;durP1;ratioP1;P2;durP2;ratioP2
69401;SDS011;56589;51.992;5.924;2022-12-07T00:00:48;6.20;;;3.83;;
69401;SDS011;56589;51.992;5.924;2022-12-07T00:03:14;6.93;;;4.30;;
69401;SDS011;56589;51.992;5.924;2022-12-07T00:05:40;9.90;;;4.47;;
69401;SDS011;56589;51.992;5.924;2022-12-07T00:08:06;10.13;;;4.43;;
69401;SDS011;56589;51.992;5.924;2022-12-07T00:10:37;9.45;;;4.40;;
69401;SDS011;56589;51.992;5.924;2022-12-07T00:13:02;9.65;;;4.22;;
69401;SDS011;56589;51.992;5.924;2022-12-07T00:15:28;11.50;;;4.70;;
69401;SDS011;56589;51.992;5.924;2022-12-07T00:17:54;8.93;;;4.82;;
69401;SDS011;56589;51.992;5.924;2022-12-07T00:20:20;8.15;;;4.38;;
69401;SDS011;56589;51.992;5.924;2022-12-07T00:22:46;9.50;;;5.00;;
69401;SDS011;56589;51.992;5.924;2022-12-07T00:25:12;10.27;;;4.70;;
69401;SDS011;56589;51.992;5.924;2022-12-07T00:27:40;8.57;;;4.72;;
69401;SDS011;56589;51.992;5.924;2022-12-07T00:30:07;7.18;;;4.00;;
69401;SDS011;56589;51.992;5.924;2022-12-07T00:32:34;8.80;;;4.88;;
69401;SDS011;56589;51.992;5.924;2022-12-07T00:34:59;10.23;;;4.70;;
69401;SDS011;56589;51.992;5.924;2022-12-07T00:37:25;11.75;;;4.38;;
69401;SDS011;56589;51.992;5.924;2022-12-07T00:39:51;7.40;;;4.05;;
69401;SDS011;56589;51.992;5.924;2022-12-07T00:42:17;7.55;;;4.75;;
69401;SDS011;56589;51.992;5.924;2022-12-07T00:44:45;13.05;;;3.90;;
69401;SDS011;56589;51.992;5.924;2022-12-07T00:47:11;10.75;;;4.30;;
69401;SDS011;56589;51.992;5.924;2022-12-07T00:49:37;6.82;;;3.90;;
69401;SDS011;56589;51.992;5.924;2022-12-07T00:52:03;10.27;;;4.20;;
69401;SDS011;56589;51.992;5.924;2022-12-07T00:54:29;8.18;;;4.03;;
69401;SDS011;56589;51.992;5.924;2022-12-07T00:56:55;7.30;;;4.60;;
69401;SDS011;56589;51.992;5.924;2022-12-07T00:59:20;9.68;;;4.13;;
69401;SDS011;56589;51.992;5.924;2022-12-07T01:01:49;9.40;;;3.88;;
69401;SDS011;56589;51.992;5.924;2022-12-07T01:04:17;8.02;;;3.72;;
69401;SDS011;56589;51.992;5.924;2022-12-07T01:06:43;8.70;;;3.78;;
69401;SDS011;56589;51.992;5.924;2022-12-07T01:09:08;9.68;;;3.95;;
69401;SDS011;56589;51.992;5.924;2022-12-07T01:11:34;10.07;;;4.32;;
69401;SDS011;56589;51.992;5.924;2022-12-07T01:14:00;9.15;;;4.60;;
69401;SDS011;56589;51.992;5.924;2022-12-07T01:16:27;9.75;;;4.13;;
69401;SDS011;56589;51.992;5.924;2022-12-07T01:18:57;9.60;;;4.05;;
69401;SDS011;56589;51.992;5.924;2022-12-07T01:21:26;10.25;;;4.07;;
69401;SDS011;56589;51.992;5.924;2022-12-07T01:23:56;11.02;;;5.03;;
69401;SDS011;56589;51.992;5.924;2022-12-07T01:26:23;12.10;;;4.95;;
69401;SDS011;56589;51.992;5.924;2022-12-07T01:28:50;10.05;;;4.88;;
69401;SDS011;56589;51.992;5.924;2022-12-07T01:31:18;11.45;;;4.75;;
69401;SDS011;56589;51.992;5.924;2022-12-07T01:33:46;12.75;;;4.28;;
69401;SDS011;56589;51.992;5.924;2022-12-07T01:36:19;11.52;;;5.05;;
69401;SDS011;56589;51.992;5.924;2022-12-07T01:38:48;11.52;;;5.05;;
69401;SDS011;56589;51.992;5.924;2022-12-07T01:41:17;10.57;;;4.70;;
69401;SDS011;56589;51.992;5.924;2022-12-07T01:46:47;10.43;;;4.90;;
69401;SDS011;56589;51.992;5.924;2022-12-07T01:49:16;10.48;;;5.22;;
69401;SDS011;56589;51.992;5.924;2022-12-07T01:51:52;8.57;;;4.68;;
69401;SDS011;56589;51.992;5.924;2022-12-07T01:54:31;10.35;;;4.40;;
69401;SDS011;56589;51.992;5.924;2022-12-07T01:56:59;9.57;;;4.57;;
69401;SDS011;56589;51.992;5.924;2022-12-07T01:59:28;13.20;;;5.10;;
69401;SDS011;56589;51.992;5.924;2022-12-07T02:01:54;13.05;;;4.80;;
69401;SDS011;56589;51.992;5.924;2022-12-07T02:04:22;13.18;;;5.03;;
69401;SDS011;56589;51.992;5.924;2022-12-07T02:06:48;7.72;;;5.13;;
69401;SDS011;56589;51.992;5.924;2022-12-07T02:09:19;11.20;;;4.80;;
69401;SDS011;56589;51.992;5.924;2022-12-07T02:11:45;7.68;;;4.65;;
69401;SDS011;56589;51.992;5.924;2022-12-07T02:14:11;14.45;;;5.15;;
69401;SDS011;56589;51.992;5.924;2022-12-07T02:16:40;9.95;;;4.53;;
69401;SDS011;56589;51.992;5.924;2022-12-07T02:19:33;16.67;;;5.75;;
69401;SDS011;56589;51.992;5.924;2022-12-07T02:22:39;10.68;;;4.32;;
69401;SDS011;56589;51.992;5.924;2022-12-07T02:25:44;16.40;;;5.05;;
69401;SDS011;56589;51.992;5.924;2022-12-07T02:28:34;9.15;;;4.75;;
69401;SDS011;56589;51.992;5.924;2022-12-07T02:31:08;10.57;;;4.80;;
69401;SDS011;56589;51.992;5.924;2022-12-07T02:33:43;12.10;;;3.95;;
69401;SDS011;56589;51.992;5.924;2022-12-07T02:36:19;12.38;;;4.25;;
69401;SDS011;56589;51.992;5.924;2022-12-07T02:38:55;13.70;;;4.20;;
69401;SDS011;56589;51.992;5.924;2022-12-07T02:41:29;11.15;;;4.57;;
69401;SDS011;56589;51.992;5.924;2022-12-07T02:44:03;12.60;;;3.63;;
69401;SDS011;56589;51.992;5.924;2022-12-07T02:46:38;8.75;;;3.80;;
69401;SDS011;56589;51.992;5.924;2022-12-07T02:49:09;7.55;;;3.33;;
69401;SDS011;56589;51.992;5.924;2022-12-07T02:51:38;10.18;;;3.75;;
69401;SDS011;56589;51.992;5.924;2022-12-07T02:54:09;13.52;;;3.85;;
69401;SDS011;56589;51.992;5.924;2022-12-07T02:56:39;11.00;;;3.95;;
69401;SDS011;56589;51.992;5.924;2022-12-07T02:59:17;10.82;;;3.72;;
69401;SDS011;56589;51.992;5.924;2022-12-07T03:02:06;13.43;;;4.07;;
69401;SDS011;56589;51.992;5.924;2022-12-07T03:04:46;13.98;;;3.95;;
69401;SDS011;56589;51.992;5.924;2022-12-07T03:07:36;12.10;;;4.32;;
69401;SDS011;56589;51.992;5.924;2022-12-07T03:10:17;10.95;;;4.05;;
69401;SDS011;56589;51.992;5.924;2022-12-07T03:12:55;11.60;;;3.72;;
69401;SDS011;56589;51.992;5.924;2022-12-07T03:15:31;11.50;;;3.10;;
69401;SDS011;56589;51.992;5.924;2022-12-07T03:18:07;9.18;;;3.20;;
69401;SDS011;56589;51.992;5.924;2022-12-07T03:20:38;10.05;;;3.35;;
69401;SDS011;56589;51.992;5.924;2022-12-07T03:23:09;10.82;;;3.40;;
69401;SDS011;56589;51.992;5.924;2022-12-07T03:25:38;14.63;;;3.10;;
69401;SDS011;56589;51.992;5.924;2022-12-07T03:28:10;7.72;;;3.28;;
69401;SDS011;56589;51.992;5.924;2022-12-07T03:30:44;8.85;;;3.38;;
69401;SDS011;56589;51.992;5.924;2022-12-07T03:33:20;11.73;;;3.20;;
69401;SDS011;56589;51.992;5.924;2022-12-07T03:35:54;9.48;;;2.75;;
69401;SDS011;56589;51.992;5.924;2022-12-07T03:38:31;8.00;;;2.75;;
69401;SDS011;56589;51.992;5.924;2022-12-07T03:41:05;8.85;;;2.97;;
69401;SDS011;56589;51.992;5.924;2022-12-07T03:43:37;12.40;;;3.25;;
69401;SDS011;56589;51.992;5.924;2022-12-07T03:46:07;9.50;;;3.03;;
69401;SDS011;56589;51.992;5.924;2022-12-07T03:48:50;10.55;;;3.10;;
69401;SDS011;56589;51.992;5.924;2022-12-07T03:51:28;14.23;;;2.83;;
69401;SDS011;56589;51.992;5.924;2022-12-07T03:54:06;6.60;;;2.63;;
69401;SDS011;56589;51.992;5.924;2022-12-07T03:56:38;8.88;;;2.47;;
69401;SDS011;56589;51.992;5.924;2022-12-07T03:59:07;8.60;;;2.38;;
69401;SDS011;56589;51.992;5.924;2022-12-07T04:01:35;9.32;;;2.75;;
69401;SDS011;56589;51.992;5.924;2022-12-07T04:04:04;9.52;;;2.50;;
69401;SDS011;56589;51.992;5.924;2022-12-07T04:06:30;8.18;;;2.22;;
69401;SDS011;56589;51.992;5.924;2022-12-07T04:08:55;4.97;;;2.15;;
69401;SDS011;56589;51.992;5.924;2022-12-07T04:11:21;7.53;;;2.20;;
69401;SDS011;56589;51.992;5.924;2022-12-07T04:13:48;9.15;;;2.65;;
69401;SDS011;56589;51.992;5.924;2022-12-07T04:16:14;10.90;;;2.13;;
69401;SDS011;56589;51.992;5.924;2022-12-07T04:18:39;9.30;;;2.10;;
69401;SDS011;56589;51.992;5.924;2022-12-07T04:21:08;6.55;;;1.85;;
69401;SDS011;56589;51.992;5.924;2022-12-07T04:23:34;6.80;;;1.90;;
69401;SDS011;56589;51.992;5.924;2022-12-07T04:25:59;9.60;;;2.92;;
69401;SDS011;56589;51.992;5.924;2022-12-07T04:28:25;8.48;;;1.85;;
69401;SDS011;56589;51.992;5.924;2022-12-07T04:30:51;8.15;;;1.73;;
69401;SDS011;56589;51.992;5.924;2022-12-07T04:33:17;4.10;;;1.40;;
69401;SDS011;56589;51.992;5.924;2022-12-07T04:35:42;7.13;;;2.30;;
69401;SDS011;56589;51.992;5.924;2022-12-07T04:38:11;7.32;;;2.70;;
69401;SDS011;56589;51.992;5.924;2022-12-07T04:40:37;7.70;;;1.67;;
69401;SDS011;56589;51.992;5.924;2022-12-07T04:43:02;6.50;;;2.15;;
69401;SDS011;56589;51.992;5.924;2022-12-07T04:45:28;7.43;;;1.70;;
69401;SDS011;56589;51.992;5.924;2022-12-07T04:47:54;9.98;;;2.78;;
69401;SDS011;56589;51.992;5.924;2022-12-07T04:50:20;6.78;;;1.67;;
69401;SDS011;56589;51.992;5.924;2022-12-07T04:52:46;8.02;;;2.10;;
69401;SDS011;56589;51.992;5.924;2022-12-07T04:55:15;9.82;;;2.10;;
69401;SDS011;56589;51.992;5.924;2022-12-07T04:57:41;8.65;;;1.77;;
69401;SDS011;56589;51.992;5.924;2022-12-07T05:00:07;7.70;;;1.83;;
69401;SDS011;56589;51.992;5.924;2022-12-07T05:02:35;8.20;;;2.38;;
69401;SDS011;56589;51.992;5.924;2022-12-07T05:05:01;13.13;;;2.28;;
69401;SDS011;56589;51.992;5.924;2022-12-07T05:07:27;8.60;;;2.20;;
69401;SDS011;56589;51.992;5.924;2022-12-07T05:09:53;8.93;;;1.85;;
69401;SDS011;56589;51.992;5.924;2022-12-07T05:12:22;9.82;;;1.90;;
69401;SDS011;56589;51.992;5.924;2022-12-07T05:14:48;8.02;;;2.20;;
69401;SDS011;56589;51.992;5.924;2022-12-07T05:17:13;8.93;;;1.83;;
69401;SDS011;56589;51.992;5.924;2022-12-07T05:19:39;10.18;;;2.33;;
69401;SDS011;56589;51.992;5.924;2022-12-07T05:22:05;10.43;;;1.92;;
69401;SDS011;56589;51.992;5.924;2022-12-07T05:24:31;8.65;;;1.65;;
69401;SDS011;56589;51.992;5.924;2022-12-07T05:26:57;8.45;;;1.70;;
69401;SDS011;56589;51.992;5.924;2022-12-07T05:29:25;7.43;;;1.60;;
69401;SDS011;56589;51.992;5.924;2022-12-07T05:31:51;11.35;;;2.53;;
69401;SDS011;56589;51.992;5.924;2022-12-07T05:34:17;12.77;;;1.98;;
69401;SDS011;56589;51.992;5.924;2022-12-07T05:36:43;7.68;;;1.77;;
69401;SDS011;56589;51.992;5.924;2022-12-07T05:39:09;5.18;;;1.63;;
69401;SDS011;56589;51.992;5.924;2022-12-07T05:41:35;9.70;;;1.80;;
69401;SDS011;56589;51.992;5.924;2022-12-07T05:44:01;8.80;;;1.65;;
69401;SDS011;56589;51.992;5.924;2022-12-07T05:46:30;6.88;;;1.30;;
69401;SDS011;56589;51.992;5.924;2022-12-07T05:48:56;6.90;;;1.50;;
69401;SDS011;56589;51.992;5.924;2022-12-07T05:51:22;8.48;;;2.42;;
69401;SDS011;56589;51.992;5.924;2022-12-07T05:53:48;7.43;;;1.65;;
69401;SDS011;56589;51.992;5.924;2022-12-07T05:56:14;5.55;;;1.20;;
69401;SDS011;56589;51.992;5.924;2022-12-07T05:58:40;6.20;;;1.85;;
69401;SDS011;56589;51.992;5.924;2022-12-07T06:01:06;7.25;;;1.50;;
69401;SDS011;56589;51.992;5.924;2022-12-07T06:03:34;9.63;;;1.75;;
69401;SDS011;56589;51.992;5.924;2022-12-07T06:06:00;5.90;;;1.50;;
69401;SDS011;56589;51.992;5.924;2022-12-07T06:08:26;10.45;;;1.92;;
69401;SDS011;56589;51.992;5.924;2022-12-07T06:10:51;7.20;;;1.65;;
69401;SDS011;56589;51.992;5.924;2022-12-07T06:13:17;7.38;;;1.40;;
69401;SDS011;56589;51.992;5.924;2022-12-07T06:15:43;7.72;;;1.92;;
69401;SDS011;56589;51.992;5.924;2022-12-07T06:18:09;5.07;;;1.58;;
69401;SDS011;56589;51.992;5.924;2022-12-07T06:20:37;7.15;;;1.48;;
69401;SDS011;56589;51.992;5.924;2022-12-07T06:23:03;9.73;;;1.38;;
69401;SDS011;56589;51.992;5.924;2022-12-07T06:25:29;9.45;;;1.58;;
69401;SDS011;56589;51.992;5.924;2022-12-07T06:27:54;6.32;;;1.45;;
69401;SDS011;56589;51.992;5.924;2022-12-07T06:30:20;9.35;;;2.08;;
69401;SDS011;56589;51.992;5.924;2022-12-07T06:32:46;9.70;;;1.70;;
69401;SDS011;56589;51.992;5.924;2022-12-07T06:35:12;10.23;;;1.90;;
69401;SDS011;56589;51.992;5.924;2022-12-07T06:37:40;13.05;;;1.65;;
69401;SDS011;56589;51.992;5.924;2022-12-07T06:40:07;15.90;;;2.50;;
69401;SDS011;56589;51.992;5.924;2022-12-07T06:42:34;7.45;;;1.83;;
69401;SDS011;56589;51.992;5.924;2022-12-07T06:45:00;6.72;;;1.50;;
69401;SDS011;56589;51.992;5.924;2022-12-07T06:47:26;12.15;;;1.30;;
69401;SDS011;56589;51.992;5.924;2022-12-07T06:49:52;6.78;;;1.63;;
69401;SDS011;56589;51.992;5.924;2022-12-07T06:52:18;8.63;;;1.40;;
69401;SDS011;56589;51.992;5.924;2022-12-07T06:54:46;9.23;;;1.67;;
69401;SDS011;56589;51.992;5.924;2022-12-07T06:57:12;10.73;;;1.45;;
69401;SDS011;56589;51.992;5.924;2022-12-07T06:59:38;5.53;;;1.50;;
69401;SDS011;56589;51.992;5.924;2022-12-07T07:02:03;6.40;;;1.63;;
69401;SDS011;56589;51.992;5.924;2022-12-07T07:04:30;6.88;;;1.25;;
69401;SDS011;56589;51.992;5.924;2022-12-07T07:06:56;6.68;;;1.27;;
69401;SDS011;56589;51.992;5.924;2022-12-07T07:09:21;6.75;;;1.25;;
69401;SDS011;56589;51.992;5.924;2022-12-07T07:11:50;8.90;;;1.40;;
69401;SDS011;56589;51.992;5.924;2022-12-07T07:14:16;9.75;;;1.70;;
69401;SDS011;56589;51.992;5.924;2022-12-07T07:16:41;11.27;;;1.60;;
69401;SDS011;56589;51.992;5.924;2022-12-07T07:19:07;7.43;;;1.38;;
69401;SDS011;56589;51.992;5.924;2022-12-07T07:21:33;8.18;;;1.45;;
69401;SDS011;56589;51.992;5.924;2022-12-07T07:23:59;9.40;;;2.40;;
69401;SDS011;56589;51.992;5.924;2022-12-07T07:26:25;12.55;;;1.90;;
69401;SDS011;56589;51.992;5.924;2022-12-07T07:28:53;11.52;;;1.73;;
69401;SDS011;56589;51.992;5.924;2022-12-07T07:31:19;8.68;;;1.23;;
69401;SDS011;56589;51.992;5.924;2022-12-07T07:33:45;4.47;;;1.20;;
69401;SDS011;56589;51.992;5.924;2022-12-07T07:36:11;8.55;;;2.03;;
69401;SDS011;56589;51.992;5.924;2022-12-07T07:38:37;9.40;;;1.70;;
69401;SDS011;56589;51.992;5.924;2022-12-07T07:41:03;7.78;;;1.60;;
69401;SDS011;56589;51.992;5.924;2022-12-07T07:43:29;11.13;;;1.35;;
69401;SDS011;56589;51.992;5.924;2022-12-07T07:45:58;7.10;;;1.42;;
69401;SDS011;56589;51.992;5.924;2022-12-07T07:48:23;10.35;;;1.70;;
69401;SDS011;56589;51.992;5.924;2022-12-07T07:50:49;8.65;;;1.73;;
69401;SDS011;56589;51.992;5.924;2022-12-07T07:53:17;9.45;;;1.67;;
69401;SDS011;56589;51.992;5.924;2022-12-07T07:55:49;10.32;;;2.25;;
69401;SDS011;56589;51.992;5.924;2022-12-07T07:58:16;11.20;;;1.73;;
69401;SDS011;56589;51.992;5.924;2022-12-07T08:00:42;10.02;;;1.60;;
69401;SDS011;56589;51.992;5.924;2022-12-07T08:03:10;7.03;;;1.50;;
69401;SDS011;56589;51.992;5.924;2022-12-07T08:05:36;8.38;;;1.98;;
69401;SDS011;56589;51.992;5.924;2022-12-07T08:08:02;13.45;;;2.03;;
69401;SDS011;56589;51.992;5.924;2022-12-07T08:10:29;8.77;;;1.58;;
69401;SDS011;56589;51.992;5.924;2022-12-07T08:12:58;5.90;;;1.33;;
69401;SDS011;56589;51.992;5.924;2022-12-07T08:15:24;10.45;;;1.70;;
69401;SDS011;56589;51.992;5.924;2022-12-07T08:17:52;4.35;;;1.65;;
69401;SDS011;56589;51.992;5.924;2022-12-07T08:20:20;5.45;;;2.10;;
69401;SDS011;56589;51.992;5.924;2022-12-07T08:22:48;10.07;;;1.75;;
69401;SDS011;56589;51.992;5.924;2022-12-07T08:25:14;14.13;;;1.63;;
69401;SDS011;56589;51.992;5.924;2022-12-07T08:27:40;7.72;;;1.50;;
69401;SDS011;56589;51.992;5.924;2022-12-07T08:30:06;5.85;;;1.63;;
69401;SDS011;56589;51.992;5.924;2022-12-07T08:32:33;7.15;;;2.45;;
69401;SDS011;56589;51.992;5.924;2022-12-07T08:34:59;7.63;;;1.77;;
69401;SDS011;56589;51.992;5.924;2022-12-07T08:37:27;8.15;;;1.52;;
69401;SDS011;56589;51.992;5.924;2022-12-07T08:39:53;4.93;;;1.42;;
69401;SDS011;56589;51.992;5.924;2022-12-07T08:42:19;5.55;;;1.98;;
69401;SDS011;56589;51.992;5.924;2022-12-07T08:44:45;9.32;;;2.00;;
69401;SDS011;56589;51.992;5.924;2022-12-07T08:47:11;6.50;;;1.70;;
69401;SDS011;56589;51.992;5.924;2022-12-07T08:49:38;11.48;;;1.48;;
69401;SDS011;56589;51.992;5.924;2022-12-07T08:52:08;9.38;;;1.30;;
69401;SDS011;56589;51.992;5.924;2022-12-07T08:54:37;8.02;;;1.60;;
69401;SDS011;56589;51.992;5.924;2022-12-07T08:57:05;12.70;;;1.83;;
69401;SDS011;56589;51.992;5.924;2022-12-07T08:59:33;12.77;;;1.38;;
69401;SDS011;56589;51.992;5.924;2022-12-07T09:02:02;10.38;;;1.50;;
69401;SDS011;56589;51.992;5.924;2022-12-07T09:04:28;7.15;;;1.60;;
69401;SDS011;56589;51.992;5.924;2022-12-07T09:06:54;6.75;;;1.65;;
69401;SDS011;56589;51.992;5.924;2022-12-07T09:09:21;5.53;;;1.52;;
69401;SDS011;56589;51.992;5.924;2022-12-07T09:11:49;9.25;;;1.80;;
69401;SDS011;56589;51.992;5.924;2022-12-07T09:14:15;5.22;;;1.65;;
69401;SDS011;56589;51.992;5.924;2022-12-07T09:16:41;14.68;;;1.60;;
69401;SDS011;56589;51.992;5.924;2022-12-07T09:19:07;7.25;;;1.42;;
69401;SDS011;56589;51.992;5.924;2022-12-07T09:21:33;5.25;;;1.30;;
69401;SDS011;56589;51.992;5.924;2022-12-07T09:23:59;8.13;;;1.60;;
69401;SDS011;56589;51.992;5.924;2022-12-07T09:26:25;6.22;;;1.50;;
69401;SDS011;56589;51.992;5.924;2022-12-07T09:28:53;12.15;;;1.88;;
69401;SDS011;56589;51.992;5.924;2022-12-07T09:31:19;8.57;;;1.60;;
69401;SDS011;56589;51.992;5.924;2022-12-07T09:33:45;7.47;;;2.05;;
69401;SDS011;56589;51.992;5.924;2022-12-07T09:36:11;12.02;;;2.13;;
69401;SDS011;56589;51.992;5.924;2022-12-07T09:38:37;9.20;;;1.70;;
69401;SDS011;56589;51.992;5.924;2022-12-07T09:41:06;7.68;;;1.77;;
69401;SDS011;56589;51.992;5.924;2022-12-07T09:43:33;7.55;;;1.90;;
69401;SDS011;56589;51.992;5.924;2022-12-07T09:46:08;7.70;;;2.55;;
69401;SDS011;56589;51.992;5.924;2022-12-07T09:48:40;8.55;;;1.50;;
69401;SDS011;56589;51.992;5.924;2022-12-07T09:51:12;4.63;;;1.30;;
69401;SDS011;56589;51.992;5.924;2022-12-07T09:53:42;8.02;;;1.70;;
69401;SDS011;56589;51.992;5.924;2022-12-07T09:56:11;5.32;;;1.85;;
69401;SDS011;56589;51.992;5.924;2022-12-07T09:58:40;5.57;;;1.70;;
69401;SDS011;56589;51.992;5.924;2022-12-07T10:01:12;9.25;;;1.40;;
69401;SDS011;56589;51.992;5.924;2022-12-07T10:03:42;3.85;;;1.10;;
69401;SDS011;56589;51.992;5.924;2022-12-07T10:06:17;8.57;;;1.55;;
69401;SDS011;56589;51.992;5.924;2022-12-07T10:08:43;7.28;;;1.50;;
69401;SDS011;56589;51.992;5.924;2022-12-07T10:11:10;3.65;;;1.40;;
69401;SDS011;56589;51.992;5.924;2022-12-07T10:13:37;10.38;;;2.15;;
69401;SDS011;56589;51.992;5.924;2022-12-07T10:16:05;8.15;;;2.60;;
69401;SDS011;56589;51.992;5.924;2022-12-07T10:18:54;7.95;;;2.78;;
69401;SDS011;56589;51.992;5.924;2022-12-07T10:21:21;11.90;;;2.47;;
69401;SDS011;56589;51.992;5.924;2022-12-07T10:23:59;10.23;;;2.28;;
69401;SDS011;56589;51.992;5.924;2022-12-07T10:26:29;9.43;;;2.70;;
69401;SDS011;56589;51.992;5.924;2022-12-07T10:28:59;6.93;;;2.60;;
69401;SDS011;56589;51.992;5.924;2022-12-07T10:31:29;8.90;;;1.98;;
69401;SDS011;56589;51.992;5.924;2022-12-07T10:33:58;10.93;;;2.03;;
69401;SDS011;56589;51.992;5.924;2022-12-07T10:36:26;6.72;;;1.90;;
69401;SDS011;56589;51.992;5.924;2022-12-07T10:39:01;9.27;;;1.55;;
69401;SDS011;56589;51.992;5.924;2022-12-07T10:41:51;7.05;;;1.33;;
69401;SDS011;56589;51.992;5.924;2022-12-07T10:44:21;5.00;;;1.42;;
69401;SDS011;56589;51.992;5.924;2022-12-07T10:46:54;5.97;;;0.90;;
69401;SDS011;56589;51.992;5.924;2022-12-07T10:53:21;6.10;;;1.45;;
69401;SDS011;56589;51.992;5.924;2022-12-07T10:56:11;3.30;;;1.35;;
69401;SDS011;56589;51.992;5.924;2022-12-07T10:59:09;7.28;;;1.30;;
69401;SDS011;56589;51.992;5.924;2022-12-07T11:02:09;9.38;;;1.52;;
69401;SDS011;56589;51.992;5.924;2022-12-07T11:04:55;5.70;;;1.25;;
69401;SDS011;56589;51.992;5.924;2022-12-07T11:07:43;8.05;;;1.20;;
69401;SDS011;56589;51.992;5.924;2022-12-07T11:10:21;4.80;;;1.10;;
69401;SDS011;56589;51.992;5.924;2022-12-07T11:13:01;5.53;;;1.10;;
69401;SDS011;56589;51.992;5.924;2022-12-07T11:15:48;7.90;;;1.10;;
69401;SDS011;56589;51.992;5.924;2022-12-07T11:18:47;6.32;;;1.15;;
69401;SDS011;56589;51.992;5.924;2022-12-07T11:21:40;6.38;;;1.30;;
69401;SDS011;56589;51.992;5.924;2022-12-07T11:24:17;5.03;;;1.20;;
69401;SDS011;56589;51.992;5.924;2022-12-07T11:26:54;7.05;;;2.03;;
69401;SDS011;56589;51.992;5.924;2022-12-07T11:29:39;6.00;;;1.33;;
69401;SDS011;56589;51.992;5.924;2022-12-07T11:32:21;5.47;;;1.35;;
69401;SDS011;56589;51.992;5.924;2022-12-07T11:35:11;6.00;;;1.30;;
69401;SDS011;56589;51.992;5.924;2022-12-07T11:37:55;8.38;;;1.20;;
69401;SDS011;56589;51.992;5.924;2022-12-07T11:40:30;4.63;;;1.15;;
69401;SDS011;56589;51.992;5.924;2022-12-07T11:43:01;5.20;;;1.48;;
69401;SDS011;56589;51.992;5.924;2022-12-07T11:45:40;8.20;;;1.10;;
69401;SDS011;56589;51.992;5.924;2022-12-07T11:48:13;4.55;;;1.00;;
69401;SDS011;56589;51.992;5.924;2022-12-07T11:50:47;7.53;;;1.50;;
69401;SDS011;56589;51.992;5.924;2022-12-07T11:53:20;3.38;;;1.50;;
69401;SDS011;56589;51.992;5.924;2022-12-07T11:55:57;4.40;;;1.05;;
69401;SDS011;56589;51.992;5.924;2022-12-07T11:58:35;5.60;;;0.80;;
69401;SDS011;56589;51.992;5.924;2022-12-07T12:04:14;12.52;;;1.95;;
69401;SDS011;56589;51.992;5.924;2022-12-07T12:06:55;8.88;;;1.25;;
69401;SDS011;56589;51.992;5.924;2022-12-07T12:09:22;9.30;;;1.20;;
69401;SDS011;56589;51.992;5.924;2022-12-07T12:15:01;7.38;;;1.23;;
69401;SDS011;56589;51.992;5.924;2022-12-07T12:17:57;8.95;;;1.10;;
69401;SDS011;56589;51.992;5.924;2022-12-07T12:20:49;3.35;;;1.05;;
69401;SDS011;56589;51.992;5.924;2022-12-07T12:23:21;3.40;;;1.52;;
69401;SDS011;56589;51.992;5.924;2022-12-07T12:25:53;9.43;;;1.30;;
69401;SDS011;56589;51.992;5.924;2022-12-07T12:28:28;6.28;;;1.17;;
69401;SDS011;56589;51.992;5.924;2022-12-07T12:31:04;6.22;;;1.20;;
69401;SDS011;56589;51.992;5.924;2022-12-07T12:33:38;5.50;;;1.05;;
69401;SDS011;56589;51.992;5.924;2022-12-07T12:36:18;6.43;;;1.42;;
69401;SDS011;56589;51.992;5.924;2022-12-07T12:39:07;6.70;;;1.40;;
69401;SDS011;56589;51.992;5.924;2022-12-07T12:50:17;5.78;;;2.10;;
69401;SDS011;56589;51.992;5.924;2022-12-07T12:52:48;7.75;;;2.25;;
69401;SDS011;56589;51.992;5.924;2022-12-07T12:58:50;6.75;;;1.15;;
69401;SDS011;56589;51.992;5.924;2022-12-07T13:02:20;4.18;;;1.10;;
69401;SDS011;56589;51.992;5.924;2022-12-07T13:04:53;4.60;;;0.95;;
69401;SDS011;56589;51.992;5.924;2022-12-07T13:25:30;6.30;;;1.35;;
69401;SDS011;56589;51.992;5.924;2022-12-07T13:28:09;6.45;;;1.10;;
69401;SDS011;56589;51.992;5.924;2022-12-07T13:30:46;6.80;;;1.40;;
69401;SDS011;56589;51.992;5.924;2022-12-07T13:33:24;8.07;;;1.60;;
69401;SDS011;56589;51.992;5.924;2022-12-07T13:35:56;6.20;;;1.50;;
69401;SDS011;56589;51.992;5.924;2022-12-07T13:38:23;10.02;;;1.75;;
69401;SDS011;56589;51.992;5.924;2022-12-07T13:41:01;6.95;;;1.77;;
69401;SDS011;56589;51.992;5.924;2022-12-07T13:43:45;11.48;;;1.33;;
69401;SDS011;56589;51.992;5.924;2022-12-07T13:46:16;7.05;;;1.10;;
69401;SDS011;56589;51.992;5.924;2022-12-07T13:48:49;6.57;;;1.50;;
69401;SDS011;56589;51.992;5.924;2022-12-07T13:51:22;4.78;;;1.67;;
69401;SDS011;56589;51.992;5.924;2022-12-07T13:53:51;16.33;;;3.33;;
69401;SDS011;56589;51.992;5.924;2022-12-07T13:56:35;3.60;;;1.20;;
69401;SDS011;56589;51.992;5.924;2022-12-07T13:59:01;4.18;;;1.38;;
69401;SDS011;56589;51.992;5.924;2022-12-07T14:01:28;7.10;;;1.38;;
69401;SDS011;56589;51.992;5.924;2022-12-07T14:03:58;8.50;;;2.17;;
69401;SDS011;56589;51.992;5.924;2022-12-07T14:06:57;8.80;;;1.70;;
69401;SDS011;56589;51.992;5.924;2022-12-07T14:09:23;7.82;;;1.50;;
69401;SDS011;56589;51.992;5.924;2022-12-07T14:11:52;5.88;;;1.33;;
69401;SDS011;56589;51.992;5.924;2022-12-07T14:14:20;3.40;;;1.10;;
69401;SDS011;56589;51.992;5.924;2022-12-07T14:16:58;3.92;;;0.57;;
69401;SDS011;56589;51.992;5.924;2022-12-07T14:22:29;6.97;;;0.90;;
69401;SDS011;56589;51.992;5.924;2022-12-07T14:24:59;5.95;;;1.20;;
69401;SDS011;56589;51.992;5.924;2022-12-07T14:27:50;3.13;;;1.02;;
69401;SDS011;56589;51.992;5.924;2022-12-07T14:30:20;8.20;;;2.08;;
69401;SDS011;56589;51.992;5.924;2022-12-07T14:32:46;2.33;;;0.57;;
69401;SDS011;56589;51.992;5.924;2022-12-07T14:35:19;4.18;;;1.00;;
69401;SDS011;56589;51.992;5.924;2022-12-07T14:37:48;3.53;;;0.70;;
69401;SDS011;56589;51.992;5.924;2022-12-07T14:40:16;9.85;;;1.02;;
69401;SDS011;56589;51.992;5.924;2022-12-07T14:42:45;5.82;;;0.70;;
69401;SDS011;56589;51.992;5.924;2022-12-07T14:45:16;3.85;;;0.68;;
69401;SDS011;56589;51.992;5.924;2022-12-07T14:47:45;5.20;;;0.90;;
69401;SDS011;56589;51.992;5.924;2022-12-07T14:50:12;5.50;;;0.90;;
69401;SDS011;56589;51.992;5.924;2022-12-07T14:52:41;2.35;;;0.90;;
69401;SDS011;56589;51.992;5.924;2022-12-07T14:55:16;4.60;;;1.45;;
69401;SDS011;56589;51.992;5.924;2022-12-07T14:57:49;4.10;;;1.02;;
69401;SDS011;56589;51.992;5.924;2022-12-07T15:00:16;4.75;;;0.98;;
69401;SDS011;56589;51.992;5.924;2022-12-07T15:02:46;3.33;;;0.90;;
69401;SDS011;56589;51.992;5.924;2022-12-07T15:05:13;6.15;;;1.17;;
69401;SDS011;56589;51.992;5.924;2022-12-07T15:07:39;8.88;;;1.25;;
69401;SDS011;56589;51.992;5.924;2022-12-07T15:10:09;6.40;;;1.17;;
69401;SDS011;56589;51.992;5.924;2022-12-07T15:12:42;4.43;;;1.15;;
69401;SDS011;56589;51.992;5.924;2022-12-07T15:15:08;4.18;;;0.75;;
69401;SDS011;56589;51.992;5.924;2022-12-07T15:17:35;3.90;;;1.08;;
69401;SDS011;56589;51.992;5.924;2022-12-07T15:20:01;4.82;;;1.00;;
69401;SDS011;56589;51.992;5.924;2022-12-07T15:22:28;2.03;;;0.80;;
69401;SDS011;56589;51.992;5.924;2022-12-07T15:24:54;2.83;;;0.93;;
69401;SDS011;56589;51.992;5.924;2022-12-07T15:27:22;3.55;;;1.23;;
69401;SDS011;56589;51.992;5.924;2022-12-07T15:29:48;4.18;;;0.90;;
69401;SDS011;56589;51.992;5.924;2022-12-07T15:32:14;4.45;;;0.93;;
69401;SDS011;56589;51.992;5.924;2022-12-07T15:34:40;3.08;;;1.10;;
69401;SDS011;56589;51.992;5.924;2022-12-07T15:37:06;5.22;;;1.30;;
69401;SDS011;56589;51.992;5.924;2022-12-07T15:39:33;4.10;;;1.10;;
69401;SDS011;56589;51.992;5.924;2022-12-07T15:41:59;2.72;;;0.82;;
69401;SDS011;56589;51.992;5.924;2022-12-07T15:44:27;8.43;;;1.40;;
69401;SDS011;56589;51.992;5.924;2022-12-07T15:46:53;10.43;;;2.15;;
69401;SDS011;56589;51.992;5.924;2022-12-07T15:49:19;4.20;;;1.23;;